Time;durP1;ratioP1;P1;durP2;ratioP2;P2;SDS_P1;SDS_P2;PMS_P1;PMS_P2;Temp;Humidity;BMP_temperature;BMP_pressure;BME280_temperature;BME280_humidity;BME280_pressure;Samples;Min_cycle;Max_cycle;Signal;HPM_P1;HPM_P2
2022/10/06 00:01:36;;;;;;;;;;;12.30;79.90;;;-151.14;100.00;62537.16;4975745;28;19936;-83
2022/10/06 00:04:05;;;;;;;;;;;12.20;79.50;;;-151.14;100.00;62537.16;4991542;28;20239;-84
2022/10/06 00:06:33;;;;;;;;;;;12.30;79.70;;;11.29;100.00;62537.16;4975226;28;19928;-83
2022/10/06 00:09:02;;;;;;;;;;;12.30;79.70;;;11.29;100.00;62537.16;4975569;28;20239;-83
2022/10/06 00:11:30;;;;;;;;;;;12.20;79.60;;;11.29;100.00;62537.16;4975479;28;20228;-83
2022/10/06 00:13:57;;;;;;;;;;;12.20;79.60;;;11.27;100.00;82671.25;4992539;28;19928;-83
2022/10/06 00:16:25;;;;;;;;;;;12.30;79.70;;;-151.14;100.00;62537.16;4991698;28;20120;-83
2022/10/06 00:18:55;;;;;;;;;;;12.30;79.70;;;11.27;100.00;62537.16;4975635;28;19922;-83
2022/10/06 00:21:25;;;;;;;;;;;12.30;79.80;;;11.27;100.00;62537.16;4991751;28;19921;-83
2022/10/06 00:23:53;;;;;;;;;;;12.30;79.70;;;-151.14;100.00;62537.16;4991370;28;19922;-83
2022/10/06 00:26:21;;;;;;;;;;;12.30;79.70;;;11.26;100.00;62537.16;4975351;28;19928;-83
2022/10/06 00:28:49;;;;;;;;;;;12.30;79.70;;;-151.14;100.00;62537.16;4975460;28;19958;-83
2022/10/06 00:31:18;;;;;;;;;;;12.20;79.70;;;-151.14;100.00;62537.16;4975266;28;19944;-83
2022/10/06 00:33:46;;;;;;;;;;;12.20;79.70;;;-151.14;100.00;62537.16;4974376;28;19928;-83
2022/10/06 00:36:15;;;;;;;;;;;12.30;79.80;;;-151.14;100.00;62537.16;4991476;28;20116;-83
2022/10/06 00:38:44;;;;;;;;;;;12.20;79.70;;;11.26;100.00;62537.16;4975397;28;19922;-83
2022/10/06 00:41:13;;;;;;;;;;;12.20;79.70;;;-151.14;100.00;62537.16;4975152;28;20112;-83
2022/10/06 00:43:49;;;;;;;;;;;12.20;79.70;;;-151.14;100.00;62537.16;4992018;28;20137;-83
2022/10/06 00:46:28;;;;;;;;;;;12.20;79.80;;;-151.14;100.00;62537.16;4991463;28;19922;-83
2022/10/06 00:48:59;;;;;;;;;;;12.20;79.70;;;-151.14;100.00;62537.16;4975026;28;19922;-84
2022/10/06 00:51:27;;;;;;;;;;;12.20;79.70;;;-151.14;100.00;62537.16;4975055;28;19922;-83
2022/10/06 00:53:57;;;;;;;;;;;12.20;79.80;;;-151.14;100.00;62537.16;4974700;28;19922;-84
2022/10/06 00:56:25;;;;;;;;;;;12.20;79.60;;;-151.14;100.00;62537.16;4974889;28;19944;-84
2022/10/06 00:58:53;;;;;;;;;;;12.20;79.70;;;-151.14;100.00;62537.16;4992292;28;19922;-83
2022/10/06 01:01:21;;;;;;;;;;;12.20;79.70;;;-151.14;100.00;62537.16;4974976;28;19921;-83
2022/10/06 01:03:53;;;;;;;;;;;12.20;79.70;;;-151.14;100.00;62537.16;4990677;28;19922;-83
2022/10/06 01:06:21;;;;;;;;;;;12.20;79.70;;;-151.14;100.00;62537.16;4974822;28;20113;-83
2022/10/06 01:08:49;;;;;;;;;;;12.20;79.70;;;-151.14;100.00;62537.16;4975024;28;20210;-84
2022/10/06 01:11:18;;;;;;;;;;;12.20;79.70;;;-151.14;100.00;62537.16;4974902;28;20095;-83
2022/10/06 01:13:47;;;;;;;;;;;12.20;79.70;;;-151.14;100.00;62537.16;4974220;28;19922;-83
2022/10/06 01:16:17;;;;;;;;;;;12.20;79.70;;;-151.14;100.00;62537.16;4974652;28;19922;-83
2022/10/06 01:18:46;;;;;;;;;;;12.20;79.60;;;-151.14;100.00;62537.16;4974832;28;19921;-83
2022/10/06 01:21:17;;;;;;;;;;;12.20;79.70;;;-151.14;100.00;62537.16;4990794;28;20210;-84
2022/10/06 01:23:48;;;;;;;;;;;12.20;79.60;;;-151.14;100.00;62537.16;4991591;28;19930;-83
2022/10/06 01:27:03;;;;;;;;;;;12.10;79.70;;;-151.14;100.00;62537.16;4990747;28;19928;-83
2022/10/06 01:33:37;;;;;;;;;;;12.20;79.70;;;-151.14;100.00;62537.16;4971367;28;19922;-83
2022/10/06 01:36:06;;;;;;;;;;;12.20;79.60;;;-151.14;100.00;62537.16;4955154;28;19938;-83
2022/10/06 01:38:35;;;;;;;;;;;12.20;79.60;;;-151.14;100.00;62537.16;4971547;28;20206;-83
2022/10/06 01:41:06;;;;;;;;;;;12.10;79.60;;;-151.14;100.00;62537.16;4955196;28;20218;-83
2022/10/06 01:43:36;;;;;;;;;;;12.20;79.70;;;-151.14;100.00;62537.16;4970887;28;19922;-83
2022/10/06 01:46:06;;;;;;;;;;;12.20;79.70;;;-151.14;100.00;62537.16;4956798;28;20455;-83
2022/10/06 01:48:35;;;;;;;;;;;12.20;79.70;;;-151.14;100.00;62537.16;4975729;28;19922;-83
2022/10/06 01:51:03;;;;;;;;;;;12.10;79.70;;;-151.14;100.00;62537.16;4958332;28;19928;-83
2022/10/06 01:53:31;;;;;;;;;;;12.20;79.60;;;-151.14;100.00;62537.16;4957961;28;19922;-83
2022/10/06 01:55:59;;;;;;;;;;;12.10;79.80;;;-151.14;100.00;62537.16;4958434;28;19922;-83
2022/10/06 01:58:31;;;;;;;;;;;12.10;79.80;;;-151.14;100.00;62537.16;4958483;28;19922;-83
2022/10/06 02:01:04;;;;;;;;;;;12.10;79.70;;;-151.14;100.00;62537.16;4958288;28;20122;-84
2022/10/06 02:03:34;;;;;;;;;;;12.10;79.70;;;-151.14;100.00;62537.16;4957910;28;19930;-84
2022/10/06 02:06:02;;;;;;;;;;;12.10;79.80;;;-151.14;100.00;62537.16;4958370;28;19922;-83
2022/10/06 02:08:31;;;;;;;;;;;12.10;79.70;;;-151.14;100.00;62537.16;4974422;28;19928;-83
2022/10/06 02:11:05;;;;;;;;;;;12.10;79.80;;;-151.14;100.00;62537.16;4958092;28;19928;-83
2022/10/06 02:13:35;;;;;;;;;;;12.10;79.80;;;-151.14;100.00;62537.16;4957738;28;19930;-83
2022/10/06 02:16:05;;;;;;;;;;;12.10;79.90;;;-151.14;100.00;62537.16;4974543;28;19932;-83
2022/10/06 02:18:33;;;;;;;;;;;12.10;79.80;;;-151.14;100.00;62537.16;4973310;28;19928;-83
2022/10/06 02:21:01;;;;;;;;;;;12.10;79.90;;;-151.14;100.00;62537.16;4958169;28;19922;-83
2022/10/06 02:23:29;;;;;;;;;;;12.10;79.80;;;-151.14;100.00;62537.16;4961711;28;19921;-83
2022/10/06 02:25:58;;;;;;;;;;;12.10;79.80;;;11.10;100.00;62537.16;4977467;28;20240;-83
2022/10/06 02:28:27;;;;;;;;;;;12.10;79.90;;;-151.14;100.00;62537.16;4977181;28;19922;-83
2022/10/06 02:31:00;;;;;;;;;;;12.10;79.90;;;-151.14;100.00;62537.16;4977362;28;19922;-83
2022/10/06 02:33:28;;;;;;;;;;;12.10;79.90;;;-151.14;100.00;62537.16;4976471;28;19929;-83
2022/10/06 02:35:56;;;;;;;;;;;12.10;79.90;;;-151.14;100.00;62537.16;4977152;28;19922;-83
2022/10/06 02:38:25;;;;;;;;;;;12.10;79.90;;;-151.14;100.00;62537.16;4976970;28;19921;-83
2022/10/06 02:40:54;;;;;;;;;;;12.00;79.50;;;11.08;100.00;62537.16;4961204;28;19922;-83
2022/10/06 02:43:23;;;;;;;;;;;12.10;79.80;;;11.07;100.00;62537.16;4976398;28;19921;-84
2022/10/06 02:45:54;;;;;;;;;;;12.00;79.80;;;-151.14;100.00;62537.16;4960987;28;19922;-84
2022/10/06 02:48:24;;;;;;;;;;;12.00;79.70;;;-151.14;100.00;62537.16;4976831;28;19928;-83
2022/10/06 02:50:56;;;;;;;;;;;12.00;79.80;;;-151.14;100.00;62537.16;4941684;28;20125;-84
2022/10/06 02:53:25;;;;;;;;;;;12.00;79.80;;;-151.14;100.00;62537.16;4973103;28;19930;-84
2022/10/06 02:55:58;;;;;;;;;;;12.00;79.80;;;-151.14;100.00;62537.16;4957285;28;19928;-83
2022/10/06 02:58:26;;;;;;;;;;;12.00;79.70;;;-151.14;100.00;62537.16;4957389;28;20263;-83
2022/10/06 03:00:54;;;;;;;;;;;12.10;79.90;;;-151.14;100.00;62537.16;4957413;28;19926;-83
2022/10/06 03:03:23;;;;;;;;;;;12.10;80.00;;;-151.14;100.00;62537.16;4973103;28;20214;-83
2022/10/06 03:05:59;;;;;;;;;;;12.00;79.90;;;-151.14;100.00;62537.16;4973690;28;19929;-83
2022/10/06 03:08:27;;;;;;;;;;;12.00;79.90;;;-151.14;100.00;62537.16;4957323;28;19923;-83
2022/10/06 03:10:59;;;;;;;;;;;12.10;79.90;;;-151.14;100.00;62537.16;4973505;28;19922;-83
2022/10/06 03:13:28;;;;;;;;;;;12.00;79.80;;;-151.14;100.00;62537.16;4957072;28;19949;-83
2022/10/06 03:15:56;;;;;;;;;;;12.00;79.90;;;-151.14;100.00;62537.16;4957272;28;20117;-83
2022/10/06 03:18:26;;;;;;;;;;;12.00;79.80;;;11.06;100.00;82642.25;4957381;28;19929;-84
2022/10/06 03:20:54;;;;;;;;;;;12.00;79.70;;;11.04;100.00;62537.16;4973255;28;19922;-84
2022/10/06 03:23:22;;;;;;;;;;;12.00;79.80;;;-151.14;100.00;62537.16;4972653;28;19937;-84
2022/10/06 03:25:57;;;;;;;;;;;12.00;79.90;;;11.02;100.00;62537.16;4941359;28;20239;-84
2022/10/06 03:28:25;;;;;;;;;;;12.00;79.90;;;-151.14;100.00;62537.16;4956877;28;19922;-83
2022/10/06 03:30:53;;;;;;;;;;;12.00;79.80;;;-151.14;100.00;62537.16;4973092;28;19929;-84
2022/10/06 03:33:22;;;;;;;;;;;12.00;79.90;;;11.00;100.00;62537.16;4956255;28;19922;-85
2022/10/06 03:36:00;;;;;;;;;;;12.00;79.80;;;11.00;100.00;62537.16;4973157;28;20115;-84
2022/10/06 03:38:29;;;;;;;;;;;12.00;79.90;;;-151.14;100.00;62537.16;4956824;28;19922;-84
2022/10/06 03:41:07;;;;;;;;;;;12.00;79.90;;;11.00;100.00;62537.16;4957025;28;19922;-84
2022/10/06 03:43:36;;;;;;;;;;;12.00;79.90;;;-151.14;100.00;62537.16;4972348;28;20107;-84
2022/10/06 03:46:04;;;;;;;;;;;12.00;79.90;;;-151.14;100.00;62537.16;4956789;28;19922;-84
2022/10/06 03:48:34;;;;;;;;;;;12.00;79.90;;;-151.14;100.00;62537.16;4956723;28;20117;-84
2022/10/06 03:51:04;;;;;;;;;;;12.00;79.90;;;10.98;100.00;62537.16;4956728;28;19928;-84
2022/10/06 03:53:33;;;;;;;;;;;12.00;79.90;;;-151.14;100.00;62537.16;4955955;28;19926;-84
2022/10/06 03:56:02;;;;;;;;;;;12.00;79.90;;;-151.14;100.00;62537.16;4972850;28;19922;-84
2022/10/06 03:58:33;;;;;;;;;;;12.00;79.90;;;-151.14;100.00;62537.16;4956655;28;19922;-84
2022/10/06 04:01:02;;;;;;;;;;;11.90;79.90;;;-151.14;100.00;62537.16;4972698;28;19944;-84
2022/10/06 04:03:30;;;;;;;;;;;12.00;80.00;;;-151.14;100.00;62537.16;4955999;28;19944;-84
2022/10/06 04:05:59;;;;;;;;;;;11.90;79.90;;;-151.14;100.00;62537.16;4983286;28;20213;-84
2022/10/06 04:08:28;;;;;;;;;;;11.90;80.00;;;-151.14;100.00;62537.16;4974653;28;19928;-84
2022/10/06 04:11:04;;;;;;;;;;;11.90;80.00;;;-151.14;100.00;62537.16;4975736;28;19922;-84
2022/10/06 04:13:32;;;;;;;;;;;11.90;79.90;;;-151.14;100.00;62537.16;4975085;28;19921;-84
2022/10/06 04:16:09;;;;;;;;;;;11.90;80.00;;;-151.14;100.00;62537.16;4991873;28;19922;-84
2022/10/06 04:18:38;;;;;;;;;;;11.90;80.20;;;-151.14;100.00;62537.16;4975465;28;20209;-84
2022/10/06 04:21:06;;;;;;;;;;;11.90;80.00;;;-151.14;100.00;62537.16;4991805;28;20221;-84
2022/10/06 04:23:36;;;;;;;;;;;11.90;80.10;;;-151.14;100.00;62537.16;4974968;28;19936;-84
2022/10/06 04:26:08;;;;;;;;;;;11.90;80.10;;;-151.14;100.00;62537.16;4975537;28;19922;-83
2022/10/06 04:28:37;;;;;;;;;;;11.90;80.10;;;-151.14;100.00;62537.16;4991498;28;19922;-84
2022/10/06 04:31:06;;;;;;;;;;;11.90;80.00;;;-151.14;100.00;62537.16;4975477;28;19944;-84
2022/10/06 04:33:34;;;;;;;;;;;11.90;80.20;;;-151.14;100.00;62537.16;4974467;28;19930;-84
2022/10/06 04:36:05;;;;;;;;;;;11.90;80.00;;;-151.14;100.00;62537.16;4975504;28;20213;-84
2022/10/06 04:38:35;;;;;;;;;;;11.90;80.10;;;-151.14;100.00;62537.16;4975185;28;19922;-84
2022/10/06 04:41:07;;;;;;;;;;;11.90;80.20;;;-151.14;100.00;62537.16;4975292;28;20235;-83
2022/10/06 04:43:35;;;;;;;;;;;11.90;80.20;;;-151.14;100.00;62537.16;4990894;28;19936;-84
2022/10/06 04:46:03;;;;;;;;;;;11.90;80.00;;;-151.14;100.00;62537.16;4959339;28;19928;-84
2022/10/06 04:48:31;;;;;;;;;;;11.90;80.10;;;-151.14;100.00;62537.16;4991254;28;19922;-84
2022/10/06 04:51:00;;;;;;;;;;;11.90;80.10;;;-151.14;100.00;62537.16;4991411;28;19928;-84
2022/10/06 04:53:28;;;;;;;;;;;11.90;80.10;;;-151.14;100.00;62537.16;4974456;28;19936;-84
2022/10/06 04:56:02;;;;;;;;;;;11.90;80.00;;;-151.14;100.00;62537.16;4975184;28;19922;-84
2022/10/06 04:58:33;;;;;;;;;;;11.90;80.00;;;-151.14;100.00;62537.16;4959058;28;19922;-84
2022/10/06 05:01:01;;;;;;;;;;;11.90;80.00;;;-151.14;100.00;62537.16;4992236;28;19922;-84
2022/10/06 05:03:30;;;;;;;;;;;11.90;79.90;;;-151.14;100.00;62537.16;4991657;28;19921;-84
2022/10/06 05:06:05;;;;;;;;;;;11.90;80.00;;;-151.14;100.00;62537.16;4974517;28;21211;-84
2022/10/06 05:08:33;;;;;;;;;;;12.00;80.00;;;-151.14;100.00;62537.16;4974446;28;19922;-84
2022/10/06 05:11:03;;;;;;;;;;;11.90;79.80;;;-151.14;100.00;62537.16;4990981;28;19928;-84
2022/10/06 05:13:31;;;;;;;;;;;11.90;79.70;;;-151.14;100.00;62537.16;4974074;28;20102;-84
2022/10/06 05:16:00;;;;;;;;;;;11.90;79.70;;;-151.14;100.00;62537.16;4974706;28;20117;-84
2022/10/06 05:18:30;;;;;;;;;;;11.90;79.70;;;-151.14;100.00;62537.16;4974743;28;19936;-84
2022/10/06 05:20:59;;;;;;;;;;;11.90;79.60;;;10.95;100.00;62537.16;4977662;28;19928;-84
2022/10/06 05:23:28;;;;;;;;;;;11.90;79.60;;;-151.14;100.00;62537.16;4977920;28;20102;-84
2022/10/06 05:25:57;;;;;;;;;;;11.90;79.70;;;-151.14;100.00;62537.16;4994459;28;19922;-84
2022/10/06 05:28:26;;;;;;;;;;;12.00;79.50;;;-151.14;100.00;62537.16;4978010;28;19928;-84
2022/10/06 05:30:56;;;;;;;;;;;12.00;79.60;;;-151.14;100.00;62537.16;4978094;28;19922;-84
2022/10/06 05:33:25;;;;;;;;;;;12.00;79.50;;;-151.14;100.00;62537.16;4993731;28;19932;-84
2022/10/06 05:35:53;;;;;;;;;;;12.00;79.40;;;-151.14;100.00;62537.16;4978302;28;19928;-84
2022/10/06 05:38:22;;;;;;;;;;;12.00;79.40;;;-151.14;100.00;62537.16;4961798;28;19922;-84
2022/10/06 05:40:50;;;;;;;;;;;12.00;79.40;;;-151.14;100.00;62537.16;4994263;28;19944;-84
2022/10/06 05:43:18;;;;;;;;;;;12.00;79.40;;;-151.14;100.00;62537.16;4977319;28;19929;-84
2022/10/06 05:45:54;;;;;;;;;;;12.00;79.30;;;-151.14;100.00;62537.16;4977829;28;20125;-84
2022/10/06 05:48:22;;;;;;;;;;;12.00;79.20;;;-151.14;100.00;62537.16;4994113;28;19922;-84
2022/10/06 05:50:57;;;;;;;;;;;12.00;79.10;;;18.08;100.00;62537.16;4994115;28;19922;-84
2022/10/06 05:53:26;;;;;;;;;;;12.00;79.00;;;-151.14;100.00;62537.16;4977222;28;19928;-84
2022/10/06 05:56:05;;;;;;;;;;;12.00;79.00;;;-151.14;100.00;62537.16;4993977;28;19928;-84
2022/10/06 05:58:34;;;;;;;;;;;12.10;79.10;;;-151.14;100.00;62537.16;4994006;28;19922;-84
2022/10/06 06:01:11;;;;;;;;;;;12.10;78.90;;;-151.14;100.00;62537.16;4977670;28;19921;-84
2022/10/06 06:03:41;;;;;;;;;;;12.10;79.10;;;-151.14;100.00;62537.16;4993275;28;19933;-84
2022/10/06 06:06:15;;;;;;;;;;;12.10;78.90;;;-151.14;100.00;62537.16;4993802;28;19922;-84
2022/10/06 06:08:44;;;;;;;;;;;12.10;78.90;;;-151.14;100.00;62537.16;4977624;28;20221;-84
2022/10/06 06:11:12;;;;;;;;;;;12.10;78.60;;;-151.14;100.00;62537.16;4993684;28;19929;-84
2022/10/06 06:13:40;;;;;;;;;;;12.20;78.40;;;-151.14;100.00;62537.16;4976869;28;19928;-84
2022/10/06 06:16:15;;;;;;;;;;;12.20;78.10;;;-151.14;100.00;62537.16;4977367;28;19922;-84
2022/10/06 06:18:43;;;;;;;;;;;12.30;78.00;;;-151.14;100.00;62537.16;4977482;28;20231;-84
2022/10/06 06:21:13;;;;;;;;;;;12.30;77.80;;;-151.14;100.00;62537.16;4993536;28;19928;-84
2022/10/06 06:23:45;;;;;;;;;;;12.30;77.50;;;-151.14;100.00;62537.16;4993108;28;19922;-84
2022/10/06 06:26:15;;;;;;;;;;;12.40;77.30;;;-151.14;100.00;62537.16;4977046;28;19930;-84
2022/10/06 06:28:47;;;;;;;;;;;12.40;77.20;;;-151.14;100.00;62537.16;4977302;28;19943;-84
2022/10/06 06:31:20;;;;;;;;;;;12.40;76.80;;;-151.14;100.00;62537.16;4992837;28;20141;-84
2022/10/06 06:33:51;;;;;;;;;;;12.50;76.80;;;-151.14;100.00;62537.16;4976550;28;19928;-84
2022/10/06 06:36:20;;;;;;;;;;;12.50;76.80;;;-151.14;100.00;62537.16;4977070;28;19928;-84
2022/10/06 06:38:50;;;;;;;;;;;12.60;76.50;;;-151.14;100.00;62537.16;4977088;28;19922;-84
2022/10/06 06:41:20;;;;;;;;;;;12.60;76.30;;;-151.14;100.00;62537.16;4976974;28;19928;-84
2022/10/06 06:43:48;;;;;;;;;;;12.60;76.30;;;-151.14;100.00;62537.16;5002253;28;20121;-85
2022/10/06 06:46:39;;;;;;;;;;;12.70;76.30;;;-151.14;100.00;62537.16;5009424;28;19928;-84
2022/10/06 06:49:13;;;;;;;;;;;12.70;76.10;;;-151.14;100.00;62537.16;4993270;28;19928;-84
2022/10/06 06:51:48;;;;;;;;;;;12.70;75.80;;;-151.14;100.00;62537.16;4960781;28;19944;-84
2022/10/06 06:54:18;;;;;;;;;;;12.80;75.80;;;11.91;100.00;62537.16;4976226;28;19934;-84
2022/10/06 06:56:50;;;;;;;;;;;12.80;76.10;;;11.91;100.00;62537.16;4992884;28;19921;-85
2022/10/06 06:59:20;;;;;;;;;;;12.90;76.80;;;11.91;100.00;62537.16;5009440;28;19922;-84
2022/10/06 07:01:52;;;;;;;;;;;12.90;76.90;;;11.91;100.00;62537.16;4976647;28;19928;-84
2022/10/06 07:04:23;;;;;;;;;;;13.00;76.80;;;11.91;100.00;62537.16;4976286;28;19944;-84
2022/10/06 07:06:57;;;;;;;;;;;13.00;76.70;;;11.91;100.00;62537.16;4992679;28;19922;-84
2022/10/06 07:09:27;;;;;;;;;;;13.10;76.80;;;11.91;100.00;97471.34;5009209;28;19922;-84
2022/10/06 07:12:01;;;;;;;;;;;13.10;76.70;;;-151.14;100.00;62537.16;4993017;28;19929;-84
2022/10/06 07:14:30;;;;;;;;;;;13.10;76.60;;;12.26;100.00;82807.19;5008480;28;19929;-84
2022/10/06 07:25:24;;;;;;;;;;;13.20;76.40;;;12.28;100.00;62537.16;4956481;28;19922;-84
2022/10/06 07:27:53;;;;;;;;;;;13.30;76.40;;;12.30;100.00;62537.16;4957143;28;20118;-84
2022/10/06 07:30:28;;;;;;;;;;;13.30;76.50;;;-151.14;100.00;62537.16;4976325;28;19944;-85
2022/10/06 07:33:13;;;;;;;;;;;13.30;76.30;;;-151.14;100.00;62537.16;4976142;28;19922;-84
2022/10/06 07:35:41;;;;;;;;;;;13.30;76.20;;;12.30;100.00;62537.16;4976174;28;20122;-85
2022/10/06 07:38:10;;;;;;;;;;;13.30;76.30;;;12.28;100.00;62537.16;4992453;28;19922;-85
2022/10/06 07:40:43;;;;;;;;;;;13.30;76.30;;;12.31;100.00;62537.16;4976055;28;19928;-84
2022/10/06 07:43:11;;;;;;;;;;;13.30;76.30;;;-151.14;100.00;62537.16;4958938;28;19928;-84
2022/10/06 07:45:45;;;;;;;;;;;13.30;76.30;;;18.08;100.00;62537.16;4956849;28;19922;-84
2022/10/06 07:48:45;;;;;;;;;;;13.30;76.30;;;12.33;100.00;62537.16;4957264;28;19923;-85
2022/10/06 07:51:14;;;;;;;;;;;13.30;76.30;;;12.33;100.00;62537.16;4972780;28;19922;-84
2022/10/06 07:53:43;;;;;;;;;;;13.30;76.30;;;-151.14;100.00;62537.16;4956063;28;19923;-84
2022/10/06 07:56:40;;;;;;;;;;;13.30;76.30;;;12.30;100.00;62537.16;4938875;28;19923;-85
2022/10/06 07:59:08;;;;;;;;;;;13.30;76.20;;;-151.14;100.00;62537.16;4972583;28;19922;-85
2022/10/06 08:01:36;;;;;;;;;;;13.30;76.30;;;12.31;100.00;62537.16;4956636;28;20127;-84
2022/10/06 08:04:06;;;;;;;;;;;13.30;76.30;;;12.32;100.00;62537.16;4955883;28;19929;-84
2022/10/06 08:06:34;;;;;;;;;;;13.30;76.30;;;-151.14;100.00;62537.16;4956216;28;19936;-85
2022/10/06 08:09:02;;;;;;;;;;;13.30;76.30;;;-151.14;100.00;62537.16;4972500;28;19929;-85
2022/10/06 08:11:30;;;;;;;;;;;13.30;76.20;;;-151.14;100.00;62537.16;4972488;28;19922;-85
2022/10/06 08:13:58;;;;;;;;;;;13.30;76.10;;;-151.14;100.00;62537.16;4957392;28;19922;-85
2022/10/06 08:16:28;;;;;;;;;;;13.30;76.10;;;12.34;100.00;82817.09;4975413;28;19925;-84
2022/10/06 08:18:57;;;;;;;;;;;13.30;76.20;;;-151.14;100.00;62537.16;4975641;28;19928;-85
2022/10/06 08:21:28;;;;;;;;;;;13.30;76.10;;;12.33;100.00;62537.16;4991835;28;19921;-85
2022/10/06 08:23:56;;;;;;;;;;;13.30;76.10;;;-151.14;100.00;62537.16;4974870;28;20132;-85
2022/10/06 08:26:25;;;;;;;;;;;13.30;76.10;;;-151.14;100.00;62537.16;4991779;28;19928;-85
2022/10/06 08:28:54;;;;;;;;;;;13.30;76.30;;;-151.14;100.00;62537.16;4975436;28;19921;-85
2022/10/06 08:31:22;;;;;;;;;;;13.30;76.20;;;12.30;100.00;62537.16;4975406;28;19928;-84
2022/10/06 08:33:53;;;;;;;;;;;13.30;76.10;;;12.31;100.00;62537.16;4974735;28;19929;-85
2022/10/06 08:36:21;;;;;;;;;;;13.30;76.20;;;-151.14;100.00;62537.16;4992538;28;19937;-85
2022/10/06 08:38:51;;;;;;;;;;;13.30;76.20;;;12.31;100.00;62537.16;4975333;28;20141;-85
2022/10/06 08:41:20;;;;;;;;;;;13.30;76.30;;;-151.14;100.00;62537.16;4975273;28;19930;-84
2022/10/06 08:43:58;;;;;;;;;;;13.30;76.40;;;12.30;100.00;62537.16;4974710;28;19944;-85
2022/10/06 08:46:28;;;;;;;;;;;13.30;76.30;;;-151.14;100.00;62537.16;4975112;28;19922;-85
2022/10/06 08:48:57;;;;;;;;;;;13.30;76.40;;;-151.14;100.00;62537.16;4991351;28;19921;-85
2022/10/06 08:51:35;;;;;;;;;;;13.30;76.30;;;-151.14;100.00;62537.16;4975240;28;19922;-85
2022/10/06 08:54:07;;;;;;;;;;;13.30;76.30;;;-151.14;100.00;62537.16;4973897;28;19921;-85
2022/10/06 08:56:36;;;;;;;;;;;13.30;76.30;;;12.32;100.00;62537.16;4992348;28;19922;-84
2022/10/06 08:59:04;;;;;;;;;;;13.30;76.40;;;12.32;100.00;62537.16;4975072;28;19922;-85
2022/10/06 09:01:37;;;;;;;;;;;13.30;76.30;;;-151.14;100.00;62537.16;4974983;28;19922;-85
2022/10/06 09:04:06;;;;;;;;;;;13.30;76.30;;;18.08;100.00;62537.16;4974565;28;20116;-85
2022/10/06 09:06:46;;;;;;;;;;;13.30;76.30;;;-151.14;100.00;62537.16;4958892;28;19937;-85
2022/10/06 09:09:25;;;;;;;;;;;13.30;76.20;;;12.31;100.00;62537.16;4974813;28;19976;-85
2022/10/06 09:12:02;;;;;;;;;;;13.30;76.20;;;-151.14;100.00;62537.16;4958876;28;19929;-85
2022/10/06 09:14:33;;;;;;;;;;;13.30;76.30;;;12.27;100.00;62537.16;4991488;28;19932;-85
2022/10/06 09:17:03;;;;;;;;;;;13.30;76.30;;;12.27;100.00;62537.16;4974604;28;19922;-85
2022/10/06 09:19:36;;;;;;;;;;;13.30;76.20;;;-151.14;100.00;62537.16;5010022;28;20166;-85
2022/10/06 09:22:05;;;;;;;;;;;13.30;76.20;;;-151.14;100.00;62537.16;4994050;28;20095;-85
2022/10/06 09:24:36;;;;;;;;;;;13.30;76.30;;;12.24;100.00;82803.66;4993479;28;19929;-85
2022/10/06 09:27:15;;;;;;;;;;;13.30;76.30;;;-151.14;100.00;62537.16;4994027;28;19921;-85
2022/10/06 09:29:43;;;;;;;;;;;13.30;76.30;;;-151.14;100.00;62537.16;4993990;28;19922;-85
2022/10/06 09:32:11;;;;;;;;;;;13.20;76.10;;;-151.14;100.00;62537.16;4994029;28;19928;-84
2022/10/06 09:34:40;;;;;;;;;;;13.20;76.20;;;-151.14;100.00;62537.16;4993310;28;19922;-85
2022/10/06 09:37:11;;;;;;;;;;;13.20;76.20;;;12.18;100.00;62537.16;5010168;28;19921;-85
2022/10/06 09:39:41;;;;;;;;;;;13.20;76.10;;;-151.14;100.00;62537.16;4993844;28;19921;-85
2022/10/06 09:42:15;;;;;;;;;;;13.20;76.20;;;12.17;100.00;62537.16;4994024;28;19989;-85
2022/10/06 09:44:46;;;;;;;;;;;13.20;76.20;;;-151.14;100.00;62537.16;5009688;28;19922;-85
2022/10/06 09:47:35;;;;;;;;;;;13.20;76.20;;;-151.14;100.00;62537.16;5006527;28;19921;-85
2022/10/06 09:50:10;;;;;;;;;;;13.20;76.20;;;12.15;100.00;62537.16;5026565;28;19922;-85
2022/10/06 09:52:39;;;;;;;;;;;13.20;76.20;;;12.13;100.00;62537.16;4993762;28;20124;-85
2022/10/06 09:55:12;;;;;;;;;;;13.20;76.20;;;-151.14;100.00;62537.16;5026013;28;19921;-85
2022/10/06 09:57:48;;;;;;;;;;;13.20;76.20;;;-151.14;100.00;62537.16;4993696;28;19922;-85
2022/10/06 10:00:26;;;;;;;;;;;13.10;76.30;;;12.12;100.00;62537.16;4993800;28;19929;-84
2022/10/06 10:02:57;;;;;;;;;;;13.10;76.30;;;12.12;100.00;62537.16;4994031;28;19928;-85
2022/10/06 10:05:25;;;;;;;;;;;13.10;76.30;;;12.12;100.00;62537.16;4992899;28;20213;-85
2022/10/06 10:08:01;;;;;;;;;;;13.10;76.40;;;12.12;100.00;62537.16;5012663;28;20121;-85
2022/10/06 10:10:33;;;;;;;;;;;13.10;76.40;;;12.12;100.00;62537.16;5013405;28;19928;-85
2022/10/06 10:13:01;;;;;;;;;;;13.10;76.40;;;12.12;100.00;62537.16;4996924;28;19921;-85
2022/10/06 10:15:31;;;;;;;;;;;13.10;76.50;;;12.12;100.00;62537.16;4996206;28;19921;-85
2022/10/06 10:18:01;;;;;;;;;;;13.10;76.50;;;12.12;100.00;82787.34;4996454;28;19928;-85
2022/10/06 10:20:36;;;;;;;;;;;13.10;76.50;;;12.14;100.00;62537.16;4996682;28;19922;-85
2022/10/06 10:23:07;;;;;;;;;;;13.10;76.40;;;-151.14;100.00;62537.16;4996654;28;19928;-85
2022/10/06 10:25:52;;;;;;;;;;;13.10;76.50;;;-151.14;100.00;62537.16;4996331;28;19922;-86
2022/10/06 10:28:28;;;;;;;;;;;13.10;76.60;;;12.06;100.00;62537.16;4996559;28;19928;-85
2022/10/06 10:31:01;;;;;;;;;;;13.10;76.60;;;12.06;100.00;82778.88;5014182;28;19928;-85
2022/10/06 10:33:32;;;;;;;;;;;13.10;76.70;;;12.09;100.00;62537.16;4996061;28;20125;-85
2022/10/06 10:36:00;;;;;;;;;;;13.10;76.70;;;12.09;100.00;97440.09;4996428;28;19928;-86
2022/10/06 10:38:28;;;;;;;;;;;13.10;76.60;;;12.09;100.00;82783.09;4996269;28;20217;-86
2022/10/06 10:41:00;;;;;;;;;;;13.10;76.60;;;-151.14;100.00;62537.16;4996378;28;19941;-85
2022/10/06 10:43:30;;;;;;;;;;;13.10;76.70;;;12.04;100.00;62537.16;4995999;28;19935;-85
2022/10/06 10:46:01;;;;;;;;;;;13.10;76.60;;;12.04;100.00;97442.78;4996330;28;20231;-86
2022/10/06 10:48:31;;;;;;;;;;;13.10;76.60;;;12.04;100.00;82776.03;5013667;28;19922;-85
2022/10/06 10:51:04;;;;;;;;;;;13.00;76.60;;;-151.14;100.00;62537.16;4996289;28;19921;-85
2022/10/06 10:53:38;;;;;;;;;;;13.00;76.60;;;-151.14;100.00;62537.16;4995651;28;19922;-86
2022/10/06 10:56:09;;;;;;;;;;;13.00;76.60;;;-151.14;100.00;62537.16;4996058;28;19922;-85
2022/10/06 10:58:37;;;;;;;;;;;13.00;76.60;;;11.97;100.00;62537.16;4996285;28;20129;-85
2022/10/06 11:01:15;;;;;;;;;;;13.00;76.60;;;11.97;100.00;62537.16;4996236;28;19921;-85
2022/10/06 11:03:55;;;;;;;;;;;13.00;76.60;;;11.97;100.00;62537.16;5012024;28;19922;-85
2022/10/06 11:06:30;;;;;;;;;;;13.00;76.70;;;11.97;100.00;82767.84;4996263;28;19921;-85
2022/10/06 11:09:01;;;;;;;;;;;13.00;76.70;;;11.97;100.00;82767.50;4996067;28;19922;-85
2022/10/06 11:11:39;;;;;;;;;;;13.00;76.80;;;-151.14;100.00;62537.16;4995985;28;19928;-85
2022/10/06 11:14:09;;;;;;;;;;;13.00;76.80;;;11.93;100.00;62537.16;4976099;28;19922;-85
2022/10/06 11:16:40;;;;;;;;;;;12.90;76.80;;;11.93;100.00;94578.69;4976187;28;19922;-85
2022/10/06 11:19:16;;;;;;;;;;;13.00;76.90;;;-151.14;100.00;62537.16;4976201;28;19921;-85
2022/10/06 11:21:50;;;;;;;;;;;12.90;76.90;;;11.94;100.00;62537.16;4976587;28;19922;-85
2022/10/06 11:24:19;;;;;;;;;;;13.00;77.00;;;11.94;100.00;62537.16;4992196;28;20227;-85
2022/10/06 11:27:09;;;;;;;;;;;12.90;77.00;;;11.94;100.00;62537.16;4976298;28;19928;-85
2022/10/06 11:29:41;;;;;;;;;;;12.90;77.00;;;11.94;100.00;82763.25;4992604;28;19921;-85